Time;durP1;ratioP1;P1;durP2;ratioP2;P2;SDS_P1;SDS_P2;PMS_P1;PMS_P2;Temp;Humidity;BMP_temperature;BMP_pressure;BME280_temperature;BME280_humidity;BME280_pressure;Samples;Min_cycle;Max_cycle;Signal;HPM_P1;HPM_P2
2023/04/06 00:01:02;;;;;;;15.57;12.27;;;;;;;1.44;86.73;95964.88;4935492;29;20023;-68
2023/04/06 00:03:27;;;;;;;15.82;12.02;;;;;;;1.48;86.29;95961.19;4932244;29;20111;-69
2023/04/06 00:05:53;;;;;;;21.35;14.35;;;;;;;1.49;88.04;95959.47;4915539;29;20098;-69
2023/04/06 00:08:18;;;;;;;22.13;14.90;;;;;;;1.43;87.33;95958.84;4928032;29;20039;-68
2023/04/06 00:10:44;;;;;;;16.60;12.52;;;;;;;1.41;85.98;95955.47;4931500;29;20118;-68
2023/04/06 00:13:09;;;;;;;14.23;10.10;;;;;;;1.43;84.86;95963.19;4918311;29;20147;-68
2023/04/06 00:15:35;;;;;;;12.10;8.57;;;;;;;1.46;85.70;95964.81;4926769;29;20031;-69
2023/04/06 00:18:02;;;;;;;9.57;8.27;;;;;;;1.43;86.25;95963.19;4933732;29;20084;-68
2023/04/06 00:20:28;;;;;;;10.70;8.18;;;;;;;1.36;86.71;95960.06;4933447;29;20047;-68
2023/04/06 00:22:54;;;;;;;9.07;7.72;;;;;;;1.27;87.07;95963.16;4931776;29;20465;-69
2023/04/06 00:25:19;;;;;;;9.25;7.50;;;;;;;1.25;87.36;95962.41;4930827;29;20496;-69
2023/04/06 00:27:45;;;;;;;10.10;8.15;;;;;;;1.21;86.93;95960.84;4931521;29;20038;-69
2023/04/06 00:30:11;;;;;;;8.68;7.82;;;;;;;1.12;88.03;95955.22;4931744;29;20114;-69
2023/04/06 00:32:36;;;;;;;9.75;8.43;;;;;;;1.10;87.87;95945.81;4933309;29;20068;-69
2023/04/06 00:35:03;;;;;;;9.70;8.02;;;;;;;1.10;87.46;95948.41;4931550;29;20031;-69
2023/04/06 00:37:28;;;;;;;10.88;8.40;;;;;;;1.07;88.31;95951.19;4931805;29;20067;-69
2023/04/06 00:39:54;;;;;;;9.35;7.75;;;;;;;1.07;86.94;95938.22;4915646;29;20056;-69
2023/04/06 00:42:25;;;;;;;8.27;7.45;;;;;;;1.11;86.63;95942.34;4931734;29;20067;-69
2023/04/06 00:44:54;;;;;;;8.27;7.25;;;;;;;1.04;88.47;95931.44;4932715;29;20031;-69
2023/04/06 00:47:20;;;;;;;8.80;7.13;;;;;;;1.04;87.42;95934.03;4935839;29;20473;-69
2023/04/06 00:49:45;;;;;;;8.88;7.38;;;;;;;1.01;87.91;95931.59;4937019;29;20028;-68
2023/04/06 00:52:11;;;;;;;8.05;7.25;;;;;;;0.96;87.91;95930.97;4935611;29;20468;-68
2023/04/06 00:54:36;;;;;;;9.98;7.80;;;;;;;0.91;88.11;95926.03;4913504;29;20469;-69
2023/04/06 00:57:02;;;;;;;8.77;7.90;;;;;;;0.91;88.76;95926.03;4936083;29;20087;-69
2023/04/06 00:59:28;;;;;;;9.55;7.38;;;;;;;0.90;87.95;95918.31;4931625;29;20518;-70
2023/04/06 01:01:54;;;;;;;10.13;8.07;;;;;;;0.92;87.77;95921.66;4936896;29;20059;-69
2023/04/06 01:04:22;;;;;;;7.90;7.15;;;;;;;0.92;88.56;95917.34;4934166;29;20060;-69
2023/04/06 01:06:48;;;;;;;7.88;7.18;;;;;;;0.82;89.01;95918.69;4921038;29;20615;-69
2023/04/06 01:09:13;;;;;;;11.43;8.68;;;;;;;0.78;88.54;95925.81;4936126;29;20095;-68
2023/04/06 01:11:39;;;;;;;9.02;7.80;;;;;;;0.76;89.41;95909.47;4935438;29;20032;-69
2023/04/06 01:14:05;;;;;;;8.65;7.55;;;;;;;0.71;90.11;95908.88;4937941;29;20030;-69
2023/04/06 01:16:31;;;;;;;10.38;8.63;;;;;;;0.67;90.60;95905.59;4933223;29;20163;-69
2023/04/06 01:18:56;;;;;;;8.52;7.63;;;;;;;0.68;90.49;95902.09;4934297;29;20031;-69
2023/04/06 01:21:22;;;;;;;9.15;7.78;;;;;;;0.72;90.19;95902.75;4933376;29;20077;-68
2023/04/06 01:23:47;;;;;;;9.85;7.63;;;;;;;0.75;89.46;95907.78;4934704;29;20024;-68
2023/04/06 01:26:13;;;;;;;10.18;8.00;;;;;;;0.75;89.46;95904.38;4935862;29;20036;-69
2023/04/06 01:28:39;;;;;;;7.85;7.07;;;;;;;0.71;88.61;95890.72;4933737;29;20027;-69
2023/04/06 01:31:07;;;;;;;8.20;7.40;;;;;;;0.69;88.91;95890.81;4935632;29;20246;-69
2023/04/06 01:33:32;;;;;;;8.70;7.30;;;;;;;0.67;88.95;95894.38;4927419;29;20034;-69
2023/04/06 01:35:58;;;;;;;8.10;7.40;;;;;;;0.67;88.56;95890.06;4935319;29;20481;-69
2023/04/06 01:38:24;;;;;;;8.18;7.38;;;;;;;0.67;88.78;95890.06;4935435;29;20115;-69
2023/04/06 01:40:50;;;;;;;9.52;6.63;;;;;;;0.64;90.40;95890.19;4936706;29;20042;-69
2023/04/06 01:43:15;;;;;;;8.95;7.95;;;;;;;0.59;90.36;95889.59;4931885;29;20422;-69
2023/04/06 01:45:41;;;;;;;9.05;8.20;;;;;;;0.54;90.64;95889.81;4936341;29;20032;-70
2023/04/06 01:48:07;;;;;;;11.20;8.48;;;;;;;0.49;91.41;95894.38;4936573;29;20027;-69
2023/04/06 01:50:33;;;;;;;8.93;8.02;;;;;;;0.43;91.77;95889.50;4935717;29;20043;-69
2023/04/06 01:52:58;;;;;;;9.05;8.15;;;;;;;0.42;91.45;95890.41;4931684;29;20386;-69
2023/04/06 01:55:23;;;;;;;8.23;7.43;;;;;;;0.43;90.70;95894.69;4936921;29;20024;-69
2023/04/06 01:57:49;;;;;;;8.80;8.10;;;;;;;0.39;90.95;95882.81;4933187;29;20128;-69
2023/04/06 02:00:15;;;;;;;7.80;7.10;;;;;;;0.36;91.36;95885.53;4933006;29;20058;-69
2023/04/06 02:02:41;;;;;;;8.02;7.30;;;;;;;0.33;91.58;95893.44;4934224;29;20695;-69
2023/04/06 02:05:08;;;;;;;9.93;8.95;;;;;;;0.27;90.95;95887.66;4933202;29;20023;-70
2023/04/06 02:07:33;;;;;;;10.00;9.00;;;;;;;0.25;91.03;95897.25;4931958;29;20020;-69
2023/04/06 02:09:59;;;;;;;12.38;10.77;;;;;;;0.24;90.12;95900.75;4936876;29;20552;-69
2023/04/06 02:12:24;;;;;;;10.77;9.70;;;;;;;0.22;91.55;95902.56;4934292;29;20036;-69
2023/04/06 02:14:50;;;;;;;11.82;10.63;;;;;;;0.22;91.43;95905.16;4936118;29;20030;-69
2023/04/06 02:17:15;;;;;;;13.52;12.23;;;;;;;0.21;91.38;95900.03;4903260;29;20027;-69
2023/04/06 02:19:41;;;;;;;19.23;15.43;;;;;;;0.19;92.59;95907.91;4933489;29;20031;-68
2023/04/06 02:22:06;;;;;;;16.48;14.75;;;;;;;0.17;93.03;95896.78;4932895;29;20043;-68
2023/04/06 02:24:32;;;;;;;15.65;10.88;;;;;;;0.15;91.83;95906.38;4930877;29;20036;-69
2023/04/06 02:26:57;;;;;;;10.55;9.55;;;;;;;0.14;91.88;95902.13;4932864;29;20118;-69
2023/04/06 02:29:22;;;;;;;9.73;8.57;;;;;;;0.13;92.46;95905.63;4935250;29;20023;-70
2023/04/06 02:31:48;;;;;;;11.65;9.18;;;;;;;0.09;92.22;95901.47;4936662;29;20019;-69
2023/04/06 02:34:17;;;;;;;8.57;7.88;;;;;;;0.07;91.53;95898.97;4935690;29;20617;-69
2023/04/06 02:36:46;;;;;;;9.38;8.48;;;;;;;0.09;92.00;95897.13;4932356;29;20031;-69
2023/04/06 02:39:13;;;;;;;8.82;8.13;;;;;;;0.06;91.95;95889.53;4933365;29;20039;-69
2023/04/06 02:41:38;;;;;;;9.43;8.45;;;;;;;0.09;91.42;95884.19;4934831;29;20060;-69
2023/04/06 02:44:06;;;;;;;7.82;7.13;;;;;;;0.08;91.50;95887.69;4933174;29;20028;-69
2023/04/06 02:46:32;;;;;;;8.35;7.40;;;;;;;0.10;91.14;95885.03;4933236;29;20027;-69
2023/04/06 02:49:00;;;;;;;8.25;7.53;;;;;;;0.06;92.69;95891.25;4919413;29;20027;-69
2023/04/06 02:51:25;;;;;;;19.90;17.80;;;;;;;0.02;92.59;95885.41;4934240;29;20023;-69
2023/04/06 02:53:51;;;;;;;15.75;13.32;;;;;;;-0.01;92.30;95883.78;4932064;29;20396;-69
2023/04/06 02:56:16;;;;;;;10.65;8.98;;;;;;;0.01;91.82;95885.47;4935453;29;20039;-69
2023/04/06 02:58:42;;;;;;;8.52;7.75;;;;;;;0.03;91.86;95884.50;4932143;29;20032;-69
2023/04/06 03:01:07;;;;;;;8.10;7.35;;;;;;;0.15;90.50;95893.44;4934418;29;20039;-69
2023/04/06 03:03:32;;;;;;;8.43;7.43;;;;;;;0.26;89.29;95892.91;4937231;29;20477;-69
2023/04/06 03:05:59;;;;;;;8.70;7.93;;;;;;;0.12;90.63;95891.81;4932888;29;20461;-69
2023/04/06 03:08:25;;;;;;;14.48;11.50;;;;;;;0.03;91.65;95894.00;4936817;29;20504;-69
2023/04/06 03:10:50;;;;;;;10.85;9.02;;;;;;;-0.06;92.68;95884.91;4932214;29;20032;-68
2023/04/06 03:13:16;;;;;;;8.60;7.75;;;;;;;-0.01;92.31;95898.47;4933685;29;20023;-69
2023/04/06 03:15:41;;;;;;;8.95;8.07;;;;;;;-0.06;92.24;95884.91;4928714;29;20091;-69
2023/04/06 03:18:06;;;;;;;8.43;7.72;;;;;;;-0.12;93.08;95891.22;4933091;29;20032;-69
2023/04/06 03:20:32;;;;;;;8.25;7.30;;;;;;;-0.11;92.90;95884.28;4929894;29;20404;-69
2023/04/06 03:22:58;;;;;;;9.88;8.93;;;;;;;-0.16;92.94;95887.09;4931746;29;20031;-69
2023/04/06 03:25:24;;;;;;;9.20;8.30;;;;;;;-0.20;93.85;95889.00;4933166;29;20393;-68
2023/04/06 03:27:49;;;;;;;9.15;8.35;;;;;;;-0.20;94.18;95885.56;4933995;29;20090;-69
2023/04/06 03:30:17;;;;;;;9.38;8.30;;;;;;;-0.22;93.20;95884.78;4929325;29;20040;-69
2023/04/06 03:32:45;;;;;;;9.10;8.18;;;;;;;-0.23;94.51;95885.69;4930875;29;20481;-69
2023/04/06 03:35:10;;;;;;;7.72;7.13;;;;;;;-0.23;92.72;95883.94;4934026;29;20416;-68
2023/04/06 03:37:36;;;;;;;8.18;7.45;;;;;;;-0.23;93.30;95893.47;4934664;29;20043;-69
2023/04/06 03:40:02;;;;;;;7.65;6.95;;;;;;;-0.25;94.08;95882.34;4903528;29;20508;-69
2023/04/06 03:42:28;;;;;;;7.72;7.03;;;;;;;-0.24;93.44;95884.03;4935400;29;20012;-69
2023/04/06 03:44:53;;;;;;;7.25;6.55;;;;;;;-0.28;92.59;95883.31;4935303;29;20038;-69
2023/04/06 03:47:19;;;;;;;7.10;6.50;;;;;;;-0.25;91.91;95887.53;4934720;29;20024;-69
2023/04/06 03:49:45;;;;;;;7.97;7.10;;;;;;;-0.29;92.05;95881.66;4932095;29;20028;-69
2023/04/06 03:52:10;;;;;;;7.88;7.18;;;;;;;-0.38;93.13;95882.06;4932943;29;20473;-69
2023/04/06 03:54:36;;;;;;;11.25;8.10;;;;;;;-0.41;94.20;95887.41;4935569;29;20027;-69
2023/04/06 03:57:01;;;;;;;7.72;7.03;;;;;;;-0.40;92.84;95889.91;4929333;29;20055;-69
2023/04/06 03:59:27;;;;;;;7.05;6.45;;;;;;;-0.31;92.15;95888.63;4935841;29;20031;-69
2023/04/06 04:01:52;;;;;;;8.73;7.20;;;;;;;-0.26;91.37;95897.03;4932059;29;20397;-70
2023/04/06 04:04:18;;;;;;;9.30;6.85;;;;;;;-0.09;90.72;95906.63;4928177;29;20031;-69
2023/04/06 04:06:43;;;;;;;10.77;8.90;;;;;;;0.09;89.84;95897.13;4934843;29;20030;-69
2023/04/06 04:09:08;;;;;;;11.68;9.00;;;;;;;-0.09;90.62;95898.84;4936479;29;20020;-69
2023/04/06 04:11:34;;;;;;;9.75;8.32;;;;;;;-0.18;91.52;95896.69;4934678;29;20060;-69
2023/04/06 04:13:59;;;;;;;10.23;8.65;;;;;;;-0.31;93.13;95904.16;4934637;29;20115;-70
2023/04/06 04:16:25;;;;;;;10.00;8.93;;;;;;;-0.45;95.13;95904.78;4901746;29;20457;-69
2023/04/06 04:18:50;;;;;;;14.63;9.60;;;;;;;-0.45;93.66;95904.78;4934594;29;20051;-70
2023/04/06 04:21:16;;;;;;;10.35;9.25;;;;;;;-0.34;92.97;95901.72;4936599;29;20027;-69
2023/04/06 04:23:41;;;;;;;9.63;8.63;;;;;;;-0.36;92.77;95906.13;4917099;29;20028;-68
2023/04/06 04:26:06;;;;;;;10.90;9.75;;;;;;;-0.37;92.92;95909.63;4934322;29;20115;-68
2023/04/06 04:28:32;;;;;;;12.38;8.73;;;;;;;-0.40;93.15;95910.59;4938251;29;20106;-68
2023/04/06 04:30:57;;;;;;;9.95;8.95;;;;;;;-0.46;93.70;95911.69;4935291;29;20034;-68
2023/04/06 04:33:23;;;;;;;10.20;9.18;;;;;;;-0.50;93.82;95915.34;4934310;29;20028;-68
2023/04/06 04:35:49;;;;;;;19.25;13.80;;;;;;;-0.58;94.60;95928.59;4938287;29;20425;-69
2023/04/06 04:38:14;;;;;;;34.58;19.40;;;;;;;-0.60;95.05;95916.66;4932370;29;20035;-69
2023/04/06 04:40:40;;;;;;;35.15;19.98;;;;;;;-0.63;95.87;95920.22;4936734;29;20531;-68
2023/04/06 04:43:05;;;;;;;28.13;16.42;;;;;;;-0.61;94.82;95928.75;4920457;29;20026;-69
2023/04/06 04:45:31;;;;;;;19.92;14.32;;;;;;;-0.60;93.92;95930.44;4937762;29;20059;-69
2023/04/06 04:47:56;;;;;;;16.05;11.70;;;;;;;-0.55;93.68;95931.97;4933666;29;20030;-68
2023/04/06 04:50:22;;;;;;;17.90;13.93;;;;;;;-0.58;93.97;95936.38;4928975;29;20032;-67
2023/04/06 04:52:47;;;;;;;16.58;11.50;;;;;;;-0.60;93.74;95940.78;4936772;29;20572;-67
2023/04/06 04:55:13;;;;;;;16.00;11.15;;;;;;;-0.63;94.32;95945.25;4932416;29;20016;-69
2023/04/06 04:57:38;;;;;;;12.95;9.75;;;;;;;-0.62;93.70;95945.19;4936340;29;20056;-68
2023/04/06 05:00:05;;;;;;;16.02;10.90;;;;;;;-0.63;94.50;95950.44;4933708;29;20501;-68
2023/04/06 05:02:31;;;;;;;10.95;9.82;;;;;;;-0.68;94.85;95950.63;4931085;29;20652;-68
2023/04/06 05:04:56;;;;;;;11.45;10.18;;;;;;;-0.65;94.41;95953.06;4913717;29;20059;-68
2023/04/06 05:07:22;;;;;;;12.85;10.77;;;;;;;-0.64;94.65;95959.91;4917767;29;20015;-68
2023/04/06 05:09:47;;;;;;;14.63;10.55;;;;;;;-0.65;95.73;95963.41;4935675;29;20107;-68
2023/04/06 05:12:13;;;;;;;13.32;9.95;;;;;;;-0.65;96.25;95957.41;4935765;29;20115;-68
2023/04/06 05:14:39;;;;;;;13.07;10.27;;;;;;;-0.68;95.58;95955.78;4934213;29;20027;-68
2023/04/06 05:17:04;;;;;;;12.38;9.48;;;;;;;-0.66;94.42;95960.91;4931408;29;20028;-68
2023/04/06 05:19:30;;;;;;;16.58;9.90;;;;;;;-0.62;94.27;95968.44;4920201;29;20050;-68
2023/04/06 05:21:55;;;;;;;10.05;8.80;;;;;;;-0.65;94.35;95978.94;4938960;29;20016;-68
2023/04/06 05:24:21;;;;;;;11.88;8.98;;;;;;;-0.59;93.41;95981.25;4938020;29;20030;-68
2023/04/06 05:26:47;;;;;;;10.93;9.05;;;;;;;-0.60;93.77;95973.56;4933059;29;20551;-68
2023/04/06 05:29:13;;;;;;;14.52;9.90;;;;;;;-0.63;93.59;95977.13;4937051;29;20031;-68
2023/04/06 05:31:39;;;;;;;16.17;12.23;;;;;;;-0.69;94.51;95986.88;4929552;29;20020;-68
2023/04/06 05:34:04;;;;;;;30.08;18.45;;;;;;;-0.66;95.93;95982.44;4933241;29;20598;-68
2023/04/06 05:36:31;;;;;;;27.25;18.08;;;;;;;-0.64;95.89;95980.63;4933214;29;20031;-68
2023/04/06 05:38:57;;;;;;;28.05;18.27;;;;;;;-0.59;95.62;95977.84;4938740;29;20076;-68
2023/04/06 05:41:23;;;;;;;28.45;18.25;;;;;;;-0.55;95.90;95983.69;4929990;29;20032;-68
2023/04/06 05:43:49;;;;;;;32.00;28.60;;;;;;;-0.51;94.95;95980.91;4922758;29;20100;-69
2023/04/06 05:46:15;;;;;;;18.45;13.75;;;;;;;-0.50;94.50;95982.59;4930572;29;20055;-72
2023/04/06 05:48:40;;;;;;;18.88;14.38;;;;;;;-0.47;94.61;95974.69;4931908;29;20027;-67
2023/04/06 05:51:06;;;;;;;16.30;12.38;;;;;;;-0.46;94.99;95984.13;4903998;29;20039;-68
2023/04/06 05:53:32;;;;;;;23.02;17.05;;;;;;;-0.48;95.33;95977.38;4936574;29;20024;-69
2023/04/06 05:56:00;;;;;;;23.25;16.65;;;;;;;-0.49;95.88;95979.09;4933158;29;20425;-70
2023/04/06 05:58:26;;;;;;;17.02;14.85;;;;;;;-0.53;96.56;95981.91;4933012;29;20074;-69
2023/04/06 06:00:59;;;;;;;18.80;16.15;;;;;;;-0.41;94.95;95991.72;4934296;29;20028;-67
2023/04/06 06:03:25;;;;;;;20.52;12.48;;;;;;;-0.19;92.57;95983.84;4919181;29;20023;-68
2023/04/06 06:05:50;;;;;;;23.40;13.73;;;;;;;-0.23;93.30;95986.63;4918543;29;20042;-68
2023/04/06 06:08:16;;;;;;;18.02;13.48;;;;;;;-0.25;94.59;95991.03;4935508;29;20476;-68
2023/04/06 06:10:41;;;;;;;18.30;12.85;;;;;;;-0.25;94.87;95986.69;4933113;29;20016;-68
2023/04/06 06:13:06;;;;;;;19.23;14.25;;;;;;;-0.25;95.12;95988.44;4937045;29;20028;-67
2023/04/06 06:15:32;;;;;;;26.23;16.00;;;;;;;-0.11;93.48;95980.91;4936936;29;20019;-68
2023/04/06 06:17:57;;;;;;;21.95;16.45;;;;;;;-0.02;92.08;95983.06;4936334;29;20026;-69
2023/04/06 06:20:23;;;;;;;25.52;19.48;;;;;;;0.01;92.45;95982.09;4927091;29;20540;-68
2023/04/06 06:22:48;;;;;;;24.15;17.50;;;;;;;0.05;92.31;95981.06;4934104;29;20049;-68
2023/04/06 06:25:14;;;;;;;31.00;18.15;;;;;;;0.18;92.27;95986.50;4934836;29;20031;-67
2023/04/06 06:27:39;;;;;;;28.73;18.77;;;;;;;0.30;91.71;95989.41;4919219;29;20027;-68
2023/04/06 06:30:05;;;;;;;21.45;16.23;;;;;;;0.34;92.09;95983.22;4935777;29;20063;-68
2023/04/06 06:32:32;;;;;;;15.18;13.00;;;;;;;0.46;91.09;95984.38;4919550;29;20028;-68
2023/04/06 06:34:57;;;;;;;21.33;14.75;;;;;;;0.53;92.25;95978.81;4928360;29;20286;-68
2023/04/06 06:37:22;;;;;;;18.88;12.82;;;;;;;0.69;91.90;95976.34;4932306;29;20028;-68
2023/04/06 06:39:48;;;;;;;15.50;14.00;;;;;;;0.78;92.61;95982.84;4934556;29;20476;-68
2023/04/06 06:42:13;;;;;;;19.10;16.08;;;;;;;0.91;92.53;95982.22;4936168;29;20352;-68
2023/04/06 06:44:39;;;;;;;24.70;15.75;;;;;;;0.97;93.79;95981.91;4933570;29;20023;-67
2023/04/06 06:47:04;;;;;;;21.80;15.15;;;;;;;1.13;93.04;95976.81;4931606;29;20019;-68
2023/04/06 06:49:30;;;;;;;18.23;12.80;;;;;;;1.28;91.24;95985.59;4919775;29;20083;-68
2023/04/06 06:51:55;;;;;;;15.02;13.35;;;;;;;1.28;92.30;95975.19;4916124;29;20020;-67
2023/04/06 06:54:21;;;;;;;17.08;11.98;;;;;;;1.28;92.53;95985.59;4929968;29;20036;-67
2023/04/06 06:56:46;;;;;;;16.70;11.63;;;;;;;1.33;92.40;95983.59;4913583;29;20048;-65
2023/04/06 06:59:12;;;;;;;15.13;13.63;;;;;;;1.63;92.27;95974.31;4932946;29;20055;-67
2023/04/06 07:01:37;;;;;;;13.10;11.48;;;;;;;2.30;89.35;95984.59;4930478;29;20008;-67
2023/04/06 07:04:02;;;;;;;18.67;15.15;;;;;;;3.34;85.59;95981.38;4928582;29;20372;-70
2023/04/06 07:06:28;;;;;;;30.90;21.00;;;;;;;4.29;81.27;95966.09;4934161;29;20102;-68
2023/04/06 07:08:53;;;;;;;18.02;13.55;;;;;;;5.10;76.43;95975.81;4931848;29;20042;-67
2023/04/06 07:11:19;;;;;;;15.73;11.25;;;;;;;5.92;72.56;95972.06;4929981;29;20051;-67
2023/04/06 07:13:44;;;;;;;9.00;7.75;;;;;;;6.54;67.68;95976.47;4928425;29;20023;-67
2023/04/06 07:16:09;;;;;;;9.20;6.68;;;;;;;6.92;65.51;95974.66;4927007;29;20504;-67
2023/04/06 07:18:35;;;;;;;5.80;5.18;;;;;;;7.41;62.73;95974.56;4930173;29;20028;-68
2023/04/06 07:21:00;;;;;;;10.00;6.15;;;;;;;7.88;60.36;95980.59;4935277;29;20054;-68
2023/04/06 07:23:26;;;;;;;7.93;7.20;;;;;;;8.21;58.95;95972.03;4933729;29;20027;-68
2023/04/06 07:25:53;;;;;;;8.23;5.93;;;;;;;8.77;56.73;95972.91;4933811;29;20174;-68
2023/04/06 07:28:19;;;;;;;5.53;4.85;;;;;;;9.02;53.33;95969.13;4930370;29;20501;-68
2023/04/06 07:30:44;;;;;;;7.03;6.32;;;;;;;9.07;52.92;95977.47;4931712;29;20023;-69
2023/04/06 07:33:09;;;;;;;6.07;5.47;;;;;;;9.18;54.36;95976.56;4933891;29;20063;-68
2023/04/06 07:35:36;;;;;;;6.00;5.50;;;;;;;9.49;52.12;95975.84;4934294;29;20083;-68
2023/04/06 07:38:02;;;;;;;6.78;5.40;;;;;;;9.31;51.25;95976.41;4935927;29;20047;-68
2023/04/06 07:40:27;;;;;;;7.72;4.95;;;;;;;9.87;52.45;95974.41;4933643;29;20074;-68
2023/04/06 07:42:53;;;;;;;6.75;5.10;;;;;;;10.19;49.28;95976.06;4932140;29;20137;-68
2023/04/06 07:45:18;;;;;;;7.50;4.80;;;;;;;10.31;50.23;95972.38;4930698;29;20031;-68
2023/04/06 07:47:44;;;;;;;5.15;4.75;;;;;;;10.11;48.29;95973.25;4930513;29;20042;-69
2023/04/06 07:50:10;;;;;;;6.55;3.90;;;;;;;10.06;47.34;95970.16;4928972;29;20055;-68
2023/04/06 07:52:35;;;;;;;3.83;3.53;;;;;;;9.67;47.73;95976.91;4929956;29;20027;-68
2023/04/06 07:55:01;;;;;;;3.25;3.05;;;;;;;9.75;46.64;95978.91;4930162;29;20031;-68
2023/04/06 07:57:26;;;;;;;3.85;3.55;;;;;;;10.09;47.38;95978.66;4935060;29;20036;-68
2023/04/06 07:59:52;;;;;;;5.03;3.50;;;;;;;10.01;45.58;95981.09;4939266;29;20043;-69
2023/04/06 08:02:17;;;;;;;3.88;3.30;;;;;;;9.58;45.93;95981.16;4931942;29;20093;-68
2023/04/06 08:04:43;;;;;;;3.72;3.45;;;;;;;9.97;46.16;95983.16;4935696;29;20023;-67
2023/04/06 08:07:09;;;;;;;4.25;3.35;;;;;;;10.39;44.04;95986.66;4935263;29;20028;-67
2023/04/06 08:09:35;;;;;;;5.32;3.45;;;;;;;10.47;44.42;95984.22;4934385;29;20020;-67
2023/04/06 08:12:00;;;;;;;3.78;3.50;;;;;;;10.93;43.70;95981.97;4932177;29;20396;-71
2023/04/06 08:14:25;;;;;;;3.80;3.50;;;;;;;11.08;42.71;95977.09;4934333;29;20055;-68
2023/04/06 08:16:51;;;;;;;3.88;3.17;;;;;;;11.28;43.33;95985.88;4936158;29;20031;-71
2023/04/06 08:19:18;;;;;;;7.35;2.90;;;;;;;11.49;42.49;95978.78;4932324;29;20640;-68
2023/04/06 08:21:44;;;;;;;4.28;3.22;;;;;;;11.30;41.19;95985.72;4935459;29;20015;-69
2023/04/06 08:24:10;;;;;;;5.43;4.53;;;;;;;11.12;42.32;95980.31;4931841;29;20476;-68
2023/04/06 08:26:35;;;;;;;3.50;3.20;;;;;;;11.14;41.79;95983.63;4921368;29;20125;-69
2023/04/06 08:29:01;;;;;;;4.15;3.45;;;;;;;11.17;42.25;95981.56;4937191;29;20110;-69
2023/04/06 08:31:27;;;;;;;3.28;3.08;;;;;;;11.20;41.22;95982.25;4933496;29;20027;-69
2023/04/06 08:33:53;;;;;;;8.38;3.70;;;;;;;11.36;41.38;95977.25;4933882;29;20024;-69
2023/04/06 08:36:22;;;;;;;4.30;3.90;;;;;;;12.45;39.86;95969.88;4902284;29;20115;-69
2023/04/06 08:38:49;;;;;;;5.55;4.40;;;;;;;12.53;36.83;95982.34;4931640;29;20074;-69
2023/04/06 08:41:18;;;;;;;4.30;3.85;;;;;;;12.55;36.66;95977.75;4936446;29;20016;-69
2023/04/06 08:43:48;;;;;;;5.32;3.33;;;;;;;12.49;36.10;95981.84;4936171;29;20015;-69
2023/04/06 08:46:14;;;;;;;3.70;3.40;;;;;;;12.80;37.42;95976.22;4936931;29;20032;-69
2023/04/06 08:48:41;;;;;;;4.40;4.00;;;;;;;13.66;36.69;95973.22;4919966;29;20028;-70
2023/04/06 08:51:11;;;;;;;6.55;5.70;;;;;;;14.00;35.18;95975.91;4933243;29;20083;-69
2023/04/06 08:53:37;;;;;;;4.03;3.60;;;;;;;14.35;33.06;95975.94;4932902;29;20179;-70
2023/04/06 08:56:04;;;;;;;5.53;5.03;;;;;;;14.42;32.53;95979.63;4934166;29;20036;-69
2023/04/06 08:58:34;;;;;;;7.55;5.70;;;;;;;14.06;31.91;95981.59;4938125;29;20534;-70
2023/04/06 09:01:02;;;;;;;4.63;4.20;;;;;;;14.31;32.25;95985.19;4936854;29;20023;-70
2023/04/06 09:03:30;;;;;;;3.97;3.65;;;;;;;14.69;34.32;95975.09;4935502;29;20028;-69
2023/04/06 09:05:56;;;;;;;5.30;3.60;;;;;;;14.86;32.12;95980.47;4934488;29;20469;-70
2023/04/06 09:08:21;;;;;;;4.32;3.90;;;;;;;14.61;33.33;95978.53;4932474;29;20046;-71
2023/04/06 09:10:48;;;;;;;3.72;3.42;;;;;;;15.11;32.34;95972.56;4937161;29;20082;-69
2023/04/06 09:13:13;;;;;;;4.38;3.97;;;;;;;15.17;29.51;95971.91;4927602;29;20035;-69
2023/04/06 09:15:39;;;;;;;5.82;5.00;;;;;;;14.57;32.07;95966.59;4936628;29;20031;-70
2023/04/06 09:18:05;;;;;;;5.35;4.85;;;;;;;14.60;31.88;95962.81;4935350;29;20031;-70
2023/04/06 09:20:30;;;;;;;3.97;3.63;;;;;;;13.96;31.42;95964.00;4932112;29;20062;-71
2023/04/06 09:22:56;;;;;;;4.40;4.00;;;;;;;14.76;32.41;95962.06;4933355;29;20124;-71
2023/04/06 09:25:24;;;;;;;5.35;3.75;;;;;;;14.52;32.33;95966.25;4934097;29;20067;-71
2023/04/06 09:28:00;;;;;;;3.70;3.40;;;;;;;14.83;30.24;95965.72;4916917;29;20032;-70
2023/04/06 09:30:26;;;;;;;3.63;3.40;;;;;;;14.87;31.90;95964.38;4933247;29;20047;-71
2023/04/06 09:32:54;;;;;;;4.35;3.90;;;;;;;15.19;31.15;95961.97;4935919;29;20544;-68
2023/04/06 09:35:21;;;;;;;3.50;3.30;;;;;;;15.16;30.01;95960.47;4931319;29;20103;-69
2023/04/06 09:37:47;;;;;;;4.28;3.83;;;;;;;15.76;31.73;95958.47;4932772;29;20076;-69
2023/04/06 09:40:14;;;;;;;4.43;4.05;;;;;;;15.74;32.03;95957.81;4934408;29;20047;-70
2023/04/06 09:42:42;;;;;;;4.72;4.22;;;;;;;15.53;32.94;95962.78;4932307;29;20027;-69
2023/04/06 09:45:08;;;;;;;6.00;3.83;;;;;;;15.51;30.22;95959.47;4932713;29;20031;-69
2023/04/06 09:47:36;;;;;;;4.97;4.13;;;;;;;14.80;32.40;95958.09;4934045;29;20038;-70
2023/04/06 09:50:02;;;;;;;4.68;3.70;;;;;;;15.76;31.54;95965.63;4934951;29;20043;-69
2023/04/06 09:52:46;;;;;;;4.43;4.07;;;;;;;15.58;29.77;95957.81;4916280;29;20031;-70
2023/04/06 09:55:16;;;;;;;4.50;4.18;;;;;;;14.72;31.96;95955.44;4935236;29;20084;-69
2023/04/06 09:57:52;;;;;;;4.63;4.18;;;;;;;15.09;32.93;95948.84;4934602;29;20079;-69
2023/04/06 10:00:23;;;;;;;4.72;4.32;;;;;;;15.37;30.54;95948.56;4930066;29;20043;-68
2023/04/06 10:03:21;;;;;;;5.60;3.75;;;;;;;15.13;32.40;95944.88;4928650;29;20020;-69
2023/04/06 10:05:58;;;;;;;4.32;4.00;;;;;;;15.65;31.32;95937.59;4931558;29;20034;-69
2023/04/06 10:08:27;;;;;;;5.22;4.25;;;;;;;14.89;33.99;95937.72;4934525;29;20028;-69
2023/04/06 10:10:55;;;;;;;6.72;3.90;;;;;;;15.60;31.49;95931.97;4932344;29;20046;-69
2023/04/06 10:13:20;;;;;;;4.57;3.88;;;;;;;15.62;32.55;95935.28;4928967;29;20016;-68
2023/04/06 10:15:46;;;;;;;4.63;4.22;;;;;;;15.13;33.01;95926.31;4932027;29;20091;-68
2023/04/06 10:18:13;;;;;;;6.90;4.30;;;;;;;15.34;33.32;95930.28;4937477;29;20047;-69
2023/04/06 10:20:46;;;;;;;4.60;3.80;;;;;;;15.71;32.08;95928.94;4929034;29;20407;-69
2023/04/06 10:23:16;;;;;;;4.88;3.58;;;;;;;15.82;32.60;95930.41;4935853;29;20062;-71
2023/04/06 10:25:53;;;;;;;3.97;3.67;;;;;;;16.21;31.83;95933.34;4930435;29;20565;-69
2023/04/06 10:28:19;;;;;;;4.28;3.85;;;;;;;16.74;32.28;95930.97;4934140;29;20039;-71
2023/04/06 10:30:45;;;;;;;3.63;3.33;;;;;;;16.82;32.26;95938.88;4929671;29;20484;-70
2023/04/06 10:33:19;;;;;;;4.30;3.92;;;;;;;17.64;31.52;95931.31;4925849;29;20038;-71
2023/04/06 10:35:44;;;;;;;5.15;3.72;;;;;;;17.16;30.01;95937.69;4929785;29;20022;-70
2023/04/06 10:38:13;;;;;;;3.83;3.47;;;;;;;16.90;29.33;95941.47;4913321;29;20031;-72
2023/04/06 10:40:40;;;;;;;4.10;3.72;;;;;;;16.54;30.29;95942.00;4932457;29;20503;-71
2023/04/06 10:43:10;;;;;;;3.70;3.40;;;;;;;16.24;29.18;95943.63;4932968;29;20030;-69
2023/04/06 10:45:36;;;;;;;6.10;3.45;;;;;;;16.57;28.79;95941.66;4928940;29;20028;-70
2023/04/06 10:48:15;;;;;;;3.63;3.33;;;;;;;17.08;27.82;95937.75;4929828;29;20031;-74
2023/04/06 10:50:47;;;;;;;4.38;3.83;;;;;;;17.33;26.88;95940.22;4915906;29;20031;-69
2023/04/06 10:53:24;;;;;;;3.80;3.50;;;;;;;16.25;28.97;95938.16;4934169;29;20027;-69
2023/04/06 10:55:55;;;;;;;4.18;3.88;;;;;;;16.44;30.29;95936.06;4917348;29;20099;-69
2023/04/06 10:58:24;;;;;;;3.85;3.20;;;;;;;16.67;28.52;95940.59;4933337;29;20215;-69
2023/04/06 11:00:50;;;;;;;4.93;3.03;;;;;;;17.31;30.61;95931.59;4929270;29;20027;-69
2023/04/06 11:03:16;;;;;;;3.90;3.53;;;;;;;17.31;27.54;95931.59;4932628;29;20045;-68
2023/04/06 11:05:49;;;;;;;3.60;3.30;;;;;;;17.42;29.91;95925.84;4916999;29;20030;-68
2023/04/06 11:08:30;;;;;;;5.75;3.92;;;;;;;17.36;28.34;95921.25;4931110;29;20103;-69
2023/04/06 11:11:15;;;;;;;3.60;3.30;;;;;;;16.45;29.47;95927.94;4932171;29;20031;-69
2023/04/06 11:13:58;;;;;;;4.63;4.10;;;;;;;17.02;29.64;95919.84;4931525;29;20046;-69
2023/04/06 11:16:26;;;;;;;6.28;4.38;;;;;;;17.07;29.58;95914.00;4933739;29;20035;-70
2023/04/06 11:18:59;;;;;;;4.60;4.00;;;;;;;16.56;29.23;95908.13;4933855;29;20445;-69
2023/04/06 11:21:43;;;;;;;4.50;3.90;;;;;;;15.98;30.86;95910.19;4933759;29;20024;-69
2023/04/06 11:24:21;;;;;;;5.50;4.05;;;;;;;16.30;29.29;95903.94;4930828;29;20035;-70
2023/04/06 11:26:57;;;;;;;4.25;3.90;;;;;;;16.66;29.66;95904.41;4933140;29;20381;-69
2023/04/06 11:29:23;;;;;;;4.80;3.95;;;;;;;16.81;29.08;95905.31;4935304;29;20024;-69